Time;durP1;ratioP1;P1;durP2;ratioP2;P2;SDS_P1;SDS_P2;PMS_P1;PMS_P2;Temp;Humidity;BMP_temperature;BMP_pressure;BME280_temperature;BME280_humidity;BME280_pressure;Samples;Min_cycle;Max_cycle;Signal;HPM_P1;HPM_P2
2023/05/17 00:01:49;;;;;;;0.20;0.20;;;;;;;;;;4910863;29;20315;-80
2023/05/17 00:04:15;;;;;;;0.20;0.20;;;;;;;;;;4908222;29;20454;-80
2023/05/17 00:06:42;;;;;;;0.10;0.10;;;;;;;;;;4907385;29;20029;-81
2023/05/17 00:09:07;;;;;;;0.13;0.13;;;;;;;;;;4913660;29;20063;-79
2023/05/17 00:11:33;;;;;;;0.20;0.20;;;;;;;;;;4915699;29;20028;-81
2023/05/17 00:13:58;;;;;;;0.20;0.20;;;;;;;;;;4915670;29;20035;-80
2023/05/17 00:16:24;;;;;;;0.20;0.20;;;;;;;;;;4915583;29;20043;-80
2023/05/17 00:18:49;;;;;;;0.20;0.20;;;;;;;;;;4916227;29;20026;-80
2023/05/17 00:21:14;;;;;;;0.20;0.20;;;;;;;;;;4913113;29;20036;-81
2023/05/17 00:23:40;;;;;;;0.20;0.20;;;;;;;;;;4911729;29;20030;-80
2023/05/17 00:26:05;;;;;;;0.20;0.20;;;;;;;;;;4898283;29;20127;-81
2023/05/17 00:28:30;;;;;;;0.20;0.20;;;;;;;;;;4912747;29;20052;-79
2023/05/17 00:30:55;;;;;;;0.10;0.10;;;;;;;;;;4917299;29;20028;-80
2023/05/17 00:33:21;;;;;;;0.20;0.20;;;;;;;;;;4894585;29;20032;-80
2023/05/17 00:35:46;;;;;;;0.10;0.10;;;;;;;;;;4911739;29;20037;-81
2023/05/17 00:38:11;;;;;;;0.20;0.20;;;;;;;;;;4897729;29;20044;-82
2023/05/17 00:40:37;;;;;;;0.20;0.20;;;;;;;;;;4913122;29;20036;-81
2023/05/17 00:43:02;;;;;;;0.20;0.20;;;;;;;;;;4904170;29;20024;-81
2023/05/17 00:45:27;;;;;;;0.20;0.20;;;;;;;;;;4904081;29;20036;-81
2023/05/17 00:47:53;;;;;;;0.10;0.10;;;;;;;;;;4911706;29;20033;-81
2023/05/17 00:50:18;;;;;;;0.20;0.20;;;;;;;;;;4885829;29;20056;-80
2023/05/17 00:52:45;;;;;;;0.10;0.10;;;;;;;;;;4903485;29;20052;-80
2023/05/17 00:55:10;;;;;;;0.10;0.10;;;;;;;;;;4909632;29;20032;-81
2023/05/17 00:57:35;;;;;;;0.10;0.10;;;;;;;;;;4907678;29;20031;-81
2023/05/17 01:00:02;;;;;;;0.20;0.20;;;;;;;;;;4911340;29;20028;-80
2023/05/17 01:02:27;;;;;;;0.20;0.20;;;;;;;;;;4903329;29;20024;-81
2023/05/17 01:04:52;;;;;;;0.20;0.20;;;;;;;;;;4911145;29;20043;-79
2023/05/17 01:07:18;;;;;;;0.13;0.13;;;;;;;;;;4902652;29;20036;-80
2023/05/17 01:09:44;;;;;;;0.10;0.10;;;;;;;;;;4910859;29;20039;-80
2023/05/17 01:12:31;;;;;;;0.28;0.28;;;;;;;;;;4911831;29;20048;-79
2023/05/17 01:15:18;;;;;;;0.10;0.10;;;;;;;;;;4914221;29;20024;-80
2023/05/17 01:17:46;;;;;;;0.20;0.20;;;;;;;;;;4915669;29;20431;-80
2023/05/17 01:20:19;;;;;;;0.20;0.20;;;;;;;;;;4911928;29;20172;-78
2023/05/17 01:23:10;;;;;;;0.20;0.20;;;;;;;;;;4883200;29;20029;-80
2023/05/17 01:25:45;;;;;;;0.20;0.20;;;;;;;;;;4914557;29;20032;-78
2023/05/17 01:28:11;;;;;;;0.20;0.20;;;;;;;;;;4906155;29;20028;-80
2023/05/17 01:30:37;;;;;;;0.20;0.20;;;;;;;;;;4908070;29;20024;-82
2023/05/17 01:33:03;;;;;;;0.20;0.20;;;;;;;;;;4900233;29;20036;-81
2023/05/17 01:35:28;;;;;;;0.10;0.10;;;;;;;;;;4905365;29;20020;-79
2023/05/17 01:37:54;;;;;;;0.10;0.10;;;;;;;;;;4915490;29;20517;-81
2023/05/17 01:40:20;;;;;;;0.10;0.10;;;;;;;;;;4917811;29;20027;-81
2023/05/17 01:42:51;;;;;;;0.20;0.20;;;;;;;;;;4910980;29;20025;-80
2023/05/17 01:45:22;;;;;;;0.17;0.17;;;;;;;;;;4916759;29;20036;-80
2023/05/17 01:48:14;;;;;;;0.10;0.10;;;;;;;;;;4900347;29;20053;-78
2023/05/17 01:50:41;;;;;;;0.10;0.10;;;;;;;;;;4902830;29;20044;-80
2023/05/17 01:53:36;;;;;;;0.17;0.17;;;;;;;;;;4905095;29;20103;-81
2023/05/17 01:56:15;;;;;;;0.20;0.20;;;;;;;;;;4904690;29;20159;-79
2023/05/17 01:58:45;;;;;;;0.10;0.10;;;;;;;;;;4909554;29;20036;-80
2023/05/17 02:01:12;;;;;;;0.20;0.20;;;;;;;;;;4905949;29;20035;-79
2023/05/17 02:03:37;;;;;;;0.10;0.10;;;;;;;;;;4899787;29;20107;-80
2023/05/17 02:06:03;;;;;;;0.20;0.20;;;;;;;;;;4902254;29;20132;-79
2023/05/17 02:08:28;;;;;;;0.10;0.10;;;;;;;;;;4903556;29;20031;-79
2023/05/17 02:10:53;;;;;;;0.20;0.20;;;;;;;;;;4916511;29;20866;-79
2023/05/17 02:13:18;;;;;;;0.20;0.20;;;;;;;;;;4918748;29;20033;-79
2023/05/17 02:15:44;;;;;;;0.20;0.20;;;;;;;;;;4902358;29;20017;-79
2023/05/17 02:18:10;;;;;;;0.20;0.20;;;;;;;;;;4913391;29;20029;-80
2023/05/17 02:20:35;;;;;;;0.20;0.20;;;;;;;;;;4912390;29;20028;-79
2023/05/17 02:23:01;;;;;;;0.10;0.10;;;;;;;;;;4907264;29;20028;-80
2023/05/17 02:25:26;;;;;;;0.10;0.10;;;;;;;;;;4914389;29;20035;-79
2023/05/17 02:27:51;;;;;;;0.10;0.10;;;;;;;;;;4896425;29;20495;-80
2023/05/17 02:30:17;;;;;;;0.20;0.20;;;;;;;;;;4905093;29;20033;-80
2023/05/17 02:32:42;;;;;;;0.22;0.22;;;;;;;;;;4920775;29;20032;-80
2023/05/17 02:35:08;;;;;;;0.10;0.10;;;;;;;;;;4913196;29;20035;-81
2023/05/17 02:37:33;;;;;;;0.20;0.20;;;;;;;;;;4908346;29;20055;-80
2023/05/17 02:39:59;;;;;;;0.10;0.10;;;;;;;;;;4908523;29;20046;-80
2023/05/17 02:42:24;;;;;;;0.20;0.20;;;;;;;;;;4921720;29;20032;-80
2023/05/17 02:44:51;;;;;;;0.20;0.20;;;;;;;;;;4908498;29;20024;-80
2023/05/17 02:47:19;;;;;;;0.20;0.20;;;;;;;;;;4918789;29;20036;-80
2023/05/17 02:49:45;;;;;;;0.20;0.20;;;;;;;;;;4909913;29;20028;-79
2023/05/17 02:52:10;;;;;;;0.20;0.20;;;;;;;;;;4907420;29;20361;-79
2023/05/17 02:54:36;;;;;;;0.20;0.20;;;;;;;;;;4917255;29;20040;-79
2023/05/17 02:57:01;;;;;;;0.20;0.20;;;;;;;;;;4920862;29;20020;-79
2023/05/17 02:59:27;;;;;;;0.20;0.20;;;;;;;;;;4914088;29;20052;-80
2023/05/17 03:01:52;;;;;;;0.20;0.20;;;;;;;;;;4903781;29;20021;-80
2023/05/17 03:04:19;;;;;;;0.20;0.20;;;;;;;;;;4914817;29;20533;-80
2023/05/17 03:06:44;;;;;;;0.20;0.20;;;;;;;;;;4905426;29;20036;-80
2023/05/17 03:09:10;;;;;;;0.20;0.20;;;;;;;;;;4895018;29;20031;-80
2023/05/17 03:11:35;;;;;;;0.20;0.20;;;;;;;;;;4922292;29;20465;-80
2023/05/17 03:14:00;;;;;;;0.30;0.30;;;;;;;;;;4912915;29;20096;-80
2023/05/17 03:16:26;;;;;;;0.20;0.20;;;;;;;;;;4911930;29;20554;-78
2023/05/17 03:18:51;;;;;;;0.20;0.20;;;;;;;;;;4927977;29;20039;-79
2023/05/17 03:21:16;;;;;;;0.20;0.20;;;;;;;;;;4923667;29;20539;-80
2023/05/17 03:23:41;;;;;;;0.20;0.20;;;;;;;;;;4917803;29;20033;-79
2023/05/17 03:26:07;;;;;;;0.20;0.20;;;;;;;;;;4908423;29;20032;-79
2023/05/17 03:28:32;;;;;;;0.20;0.20;;;;;;;;;;4912078;29;20020;-78
2023/05/17 03:30:57;;;;;;;0.20;0.20;;;;;;;;;;4907253;29;20020;-79
2023/05/17 03:33:23;;;;;;;0.17;0.17;;;;;;;;;;4904357;29;20388;-79
2023/05/17 03:35:48;;;;;;;0.20;0.20;;;;;;;;;;4902637;29;20546;-79
2023/05/17 03:38:13;;;;;;;0.20;0.20;;;;;;;;;;4897042;29;20495;-79
2023/05/17 03:40:40;;;;;;;0.20;0.20;;;;;;;;;;4914596;29;20057;-79
2023/05/17 03:43:06;;;;;;;0.20;0.20;;;;;;;;;;4912126;29;20024;-79
2023/05/17 03:45:31;;;;;;;0.20;0.20;;;;;;;;;;4903042;29;20040;-79
2023/05/17 03:47:57;;;;;;;0.20;0.20;;;;;;;;;;4904151;29;20039;-79
2023/05/17 03:50:22;;;;;;;0.20;0.20;;;;;;;;;;4915517;29;20028;-80
2023/05/17 03:52:47;;;;;;;0.30;0.30;;;;;;;;;;4913283;29;20078;-79
2023/05/17 03:55:13;;;;;;;0.20;0.20;;;;;;;;;;4892580;29;20027;-79
2023/05/17 03:57:38;;;;;;;0.20;0.20;;;;;;;;;;4910232;29;20392;-79
2023/05/17 04:00:10;;;;;;;0.20;0.20;;;;;;;;;;4907866;29;20103;-79
2023/05/17 04:02:35;;;;;;;0.10;0.10;;;;;;;;;;4912736;29;20031;-79
2023/05/17 04:05:01;;;;;;;0.20;0.20;;;;;;;;;;4909423;29;20029;-79
2023/05/17 04:07:26;;;;;;;0.20;0.20;;;;;;;;;;4903844;29;20047;-79
2023/05/17 04:09:52;;;;;;;0.20;0.20;;;;;;;;;;4913821;29;20130;-79
2023/05/17 04:12:17;;;;;;;0.20;0.20;;;;;;;;;;4913365;29;20238;-79
2023/05/17 04:15:32;;;;;;;0.20;0.20;;;;;;;;;;4915726;29;20039;-79
2023/05/17 04:17:58;;;;;;;0.10;0.10;;;;;;;;;;4904215;29;20036;-81
2023/05/17 04:20:23;;;;;;;0.20;0.20;;;;;;;;;;4912625;29;20025;-81
2023/05/17 04:22:48;;;;;;;0.20;0.20;;;;;;;;;;4907118;29;20039;-80
2023/05/17 04:25:14;;;;;;;0.20;0.20;;;;;;;;;;4898934;29;20399;-81
2023/05/17 04:27:40;;;;;;;0.20;0.20;;;;;;;;;;4911325;29;20020;-81
2023/05/17 04:30:07;;;;;;;0.20;0.20;;;;;;;;;;4918885;29;20040;-80
2023/05/17 04:32:32;;;;;;;0.20;0.20;;;;;;;;;;4922555;29;20035;-80
2023/05/17 04:34:58;;;;;;;0.20;0.20;;;;;;;;;;4913545;29;20021;-80
2023/05/17 04:37:24;;;;;;;0.20;0.20;;;;;;;;;;4900087;29;20103;-79
2023/05/17 04:39:50;;;;;;;0.20;0.20;;;;;;;;;;4915215;29;20028;-80
2023/05/17 04:42:15;;;;;;;0.20;0.20;;;;;;;;;;4922558;29;20066;-80
2023/05/17 04:44:41;;;;;;;0.20;0.20;;;;;;;;;;4898984;29;20107;-79
2023/05/17 04:47:06;;;;;;;0.20;0.20;;;;;;;;;;4903331;29;20075;-79
2023/05/17 04:49:32;;;;;;;0.20;0.20;;;;;;;;;;4893861;29;21129;-81
2023/05/17 04:51:57;;;;;;;0.20;0.20;;;;;;;;;;4903997;29;20024;-80
2023/05/17 04:54:23;;;;;;;0.20;0.20;;;;;;;;;;4879983;29;20043;-79
2023/05/17 04:56:49;;;;;;;0.20;0.20;;;;;;;;;;4903594;29;20028;-80
2023/05/17 04:59:14;;;;;;;0.20;0.20;;;;;;;;;;4907905;29;20048;-80
2023/05/17 05:01:39;;;;;;;0.20;0.20;;;;;;;;;;4914496;29;20404;-80
2023/05/17 05:04:05;;;;;;;0.20;0.20;;;;;;;;;;4914227;29;20027;-79
2023/05/17 05:06:32;;;;;;;0.20;0.20;;;;;;;;;;4905050;29;20032;-80
2023/05/17 05:08:58;;;;;;;0.10;0.10;;;;;;;;;;4911897;29;20346;-79
2023/05/17 05:11:23;;;;;;;0.20;0.20;;;;;;;;;;4912593;29;20051;-79
2023/05/17 05:13:49;;;;;;;0.20;0.20;;;;;;;;;;4900740;29;20134;-80
2023/05/17 05:16:14;;;;;;;0.20;0.20;;;;;;;;;;4898493;29;20024;-79
2023/05/17 05:18:39;;;;;;;0.30;0.30;;;;;;;;;;4904643;29;20494;-80
2023/05/17 05:21:05;;;;;;;0.20;0.20;;;;;;;;;;4888794;29;20024;-80
2023/05/17 05:23:30;;;;;;;0.25;0.25;;;;;;;;;;4911811;29;20020;-79
2023/05/17 05:25:55;;;;;;;0.20;0.20;;;;;;;;;;4910140;29;20051;-79
2023/05/17 05:28:21;;;;;;;0.20;0.20;;;;;;;;;;4913627;29;20040;-79
2023/05/17 05:30:46;;;;;;;0.20;0.20;;;;;;;;;;4908463;29;20032;-80
2023/05/17 05:33:11;;;;;;;0.20;0.20;;;;;;;;;;4940851;23;20032;-78
2023/05/17 05:35:37;;;;;;;0.20;0.20;;;;;;;;;;4956563;28;20160;-80
2023/05/17 05:38:02;;;;;;;0.17;0.17;;;;;;;;;;4960333;28;20272;-80
2023/05/17 05:40:28;;;;;;;0.20;0.20;;;;;;;;;;4976177;28;20026;-80
2023/05/17 05:42:53;;;;;;;0.10;0.10;;;;;;;;;;4970758;28;20023;-79
2023/05/17 05:45:19;;;;;;;0.20;0.20;;;;;;;;;;4967935;28;20038;-79
2023/05/17 05:47:44;;;;;;;0.20;0.20;;;;;;;;;;4963256;28;20027;-79
2023/05/17 05:50:10;;;;;;;0.20;0.20;;;;;;;;;;4974057;28;20078;-79
2023/05/17 05:52:35;;;;;;;0.13;0.13;;;;;;;;;;4972057;28;20039;-79
2023/05/17 05:55:01;;;;;;;0.20;0.20;;;;;;;;;;4964621;28;20401;-79
2023/05/17 05:57:26;;;;;;;0.10;0.10;;;;;;;;;;4963073;28;20027;-79
2023/05/17 05:59:51;;;;;;;0.20;0.20;;;;;;;;;;4963979;28;20498;-80
2023/05/17 06:02:18;;;;;;;0.20;0.20;;;;;;;;;;4969764;28;20031;-79
2023/05/17 06:04:43;;;;;;;0.30;0.30;;;;;;;;;;4961238;28;20039;-79
2023/05/17 06:07:08;;;;;;;0.15;0.15;;;;;;;;;;4959979;28;20363;-80
2023/05/17 06:09:34;;;;;;;0.20;0.20;;;;;;;;;;4958497;28;20033;-80
2023/05/17 06:12:00;;;;;;;0.20;0.20;;;;;;;;;;4967892;28;20041;-80
2023/05/17 06:14:32;;;;;;;0.20;0.20;;;;;;;;;;4962566;28;20505;-80
2023/05/17 06:16:57;;;;;;;0.20;0.20;;;;;;;;;;4961307;28;20023;-83
2023/05/17 06:19:23;;;;;;;0.20;0.20;;;;;;;;;;4967074;28;20114;-80
2023/05/17 06:21:54;;;;;;;0.30;0.30;;;;;;;;;;4964368;29;20085;-87
2023/05/17 06:24:19;;;;;;;0.20;0.20;;;;;;;;;;4962122;29;20222;-79
2023/05/17 06:26:46;;;;;;;0.20;0.20;;;;;;;;;;4957437;28;20027;-79
2023/05/17 06:29:11;;;;;;;0.35;0.35;;;;;;;;;;4961388;29;20035;-79
2023/05/17 06:31:36;;;;;;;0.28;0.28;;;;;;;;;;4957975;29;20027;-79
2023/05/17 06:34:02;;;;;;;0.38;0.38;;;;;;;;;;4959457;29;20039;-81
2023/05/17 06:36:27;;;;;;;0.40;0.40;;;;;;;;;;4959143;28;20031;-80
2023/05/17 06:38:52;;;;;;;0.30;0.30;;;;;;;;;;4951349;29;20030;-79
2023/05/17 06:41:18;;;;;;;0.30;0.30;;;;;;;;;;4962187;29;20031;-79
2023/05/17 06:43:44;;;;;;;0.30;0.30;;;;;;;;;;4962771;28;20035;-79
2023/05/17 06:46:09;;;;;;;0.15;0.15;;;;;;;;;;4959056;28;20032;-79
2023/05/17 06:48:35;;;;;;;0.20;0.20;;;;;;;;;;4962490;29;20118;-80
2023/05/17 06:51:00;;;;;;;0.30;0.30;;;;;;;;;;4968257;28;20100;-80
2023/05/17 06:53:26;;;;;;;0.35;0.35;;;;;;;;;;4968107;28;20023;-79
2023/05/17 06:55:51;;;;;;;0.20;0.20;;;;;;;;;;4960481;28;20031;-80
2023/05/17 06:58:16;;;;;;;2.40;1.45;;;;;;;;;;4947965;29;20031;-79
2023/05/17 07:00:42;;;;;;;0.30;0.30;;;;;;;;;;4962321;29;20023;-80
2023/05/17 07:03:07;;;;;;;0.30;0.30;;;;;;;;;;4961850;29;20038;-79
2023/05/17 07:05:32;;;;;;;1.65;1.55;;;;;;;;;;4960900;28;20023;-80
2023/05/17 07:07:58;;;;;;;0.20;0.20;;;;;;;;;;4962377;29;20371;-79
2023/05/17 07:10:24;;;;;;;0.20;0.20;;;;;;;;;;4961607;28;20078;-80
2023/05/17 07:12:49;;;;;;;0.30;0.30;;;;;;;;;;4962696;28;20035;-78
2023/05/17 07:15:14;;;;;;;0.20;0.20;;;;;;;;;;4958213;29;20088;-81
2023/05/17 07:17:40;;;;;;;0.52;0.52;;;;;;;;;;4943553;29;20019;-80
2023/05/17 07:20:06;;;;;;;0.20;0.20;;;;;;;;;;4941283;29;20110;-78
2023/05/17 07:22:32;;;;;;;0.10;0.10;;;;;;;;;;4962241;28;20032;-79
2023/05/17 07:24:57;;;;;;;0.20;0.20;;;;;;;;;;4956199;28;20119;-81
2023/05/17 07:27:22;;;;;;;0.45;0.45;;;;;;;;;;4958601;28;20070;-79
2023/05/17 07:29:48;;;;;;;0.40;0.40;;;;;;;;;;4962101;28;20033;-81
2023/05/17 07:32:14;;;;;;;0.10;0.10;;;;;;;;;;4955788;28;20099;-81
2023/05/17 07:34:40;;;;;;;0.20;0.20;;;;;;;;;;4955812;29;20486;-80
2023/05/17 07:37:05;;;;;;;0.10;0.10;;;;;;;;;;4957106;28;20046;-80
2023/05/17 07:39:30;;;;;;;0.10;0.10;;;;;;;;;;4962076;28;20041;-77
2023/05/17 07:41:56;;;;;;;0.30;0.30;;;;;;;;;;4965675;29;20035;-78
2023/05/17 07:44:24;;;;;;;0.10;0.10;;;;;;;;;;4962455;28;20027;-78
2023/05/17 07:46:49;;;;;;;0.20;0.20;;;;;;;;;;4953025;28;20115;-81
2023/05/17 07:49:15;;;;;;;0.10;0.10;;;;;;;;;;4957739;29;20050;-80
2023/05/17 07:51:40;;;;;;;0.10;0.10;;;;;;;;;;4957687;29;20019;-80
2023/05/17 07:54:05;;;;;;;0.20;0.20;;;;;;;;;;4958466;28;20482;-80
2023/05/17 07:56:32;;;;;;;0.20;0.20;;;;;;;;;;4955426;29;20023;-79
2023/05/17 07:58:58;;;;;;;1.15;1.05;;;;;;;;;;4967571;28;20110;-79
2023/05/17 08:01:23;;;;;;;0.20;0.20;;;;;;;;;;4957710;28;20087;-81
2023/05/17 08:03:49;;;;;;;0.20;0.20;;;;;;;;;;4955226;29;20015;-81
2023/05/17 08:06:15;;;;;;;0.20;0.20;;;;;;;;;;4955043;28;20041;-80
2023/05/17 08:08:41;;;;;;;0.10;0.10;;;;;;;;;;4956657;28;20026;-78
2023/05/17 08:11:08;;;;;;;0.10;0.10;;;;;;;;;;4962725;28;20058;-80
2023/05/17 08:13:33;;;;;;;0.20;0.20;;;;;;;;;;4968380;28;20019;-80
2023/05/17 08:16:02;;;;;;;0.20;0.20;;;;;;;;;;4953505;28;20023;-79
2023/05/17 08:18:30;;;;;;;0.20;0.20;;;;;;;;;;4956215;28;20031;-80
2023/05/17 08:20:56;;;;;;;0.15;0.15;;;;;;;;;;4964405;28;20031;-80
2023/05/17 08:23:21;;;;;;;0.25;0.25;;;;;;;;;;4962394;28;20027;-79
2023/05/17 08:25:46;;;;;;;0.10;0.10;;;;;;;;;;4953322;28;20066;-80
2023/05/17 08:28:12;;;;;;;0.20;0.20;;;;;;;;;;4960830;28;20023;-79
2023/05/17 08:30:37;;;;;;;0.10;0.10;;;;;;;;;;4961224;28;20045;-80
2023/05/17 08:33:02;;;;;;;0.20;0.20;;;;;;;;;;4960399;28;20078;-79
2023/05/17 08:35:28;;;;;;;0.13;0.13;;;;;;;;;;4953660;29;20125;-80
2023/05/17 08:37:53;;;;;;;0.20;0.20;;;;;;;;;;4956405;28;20023;-80
2023/05/17 08:40:20;;;;;;;0.20;0.20;;;;;;;;;;4963394;28;20030;-81
2023/05/17 08:42:45;;;;;;;0.20;0.20;;;;;;;;;;4969009;28;20037;-80
2023/05/17 08:45:12;;;;;;;0.10;0.10;;;;;;;;;;4957715;29;20398;-80
2023/05/17 08:47:39;;;;;;;0.30;0.30;;;;;;;;;;4962663;28;20483;-80
2023/05/17 08:50:04;;;;;;;0.10;0.10;;;;;;;;;;4962590;28;20397;-80
2023/05/17 08:52:31;;;;;;;0.20;0.20;;;;;;;;;;4958994;29;20504;-80
2023/05/17 08:54:57;;;;;;;0.38;0.38;;;;;;;;;;4953779;28;20621;-80
2023/05/17 08:57:26;;;;;;;0.20;0.20;;;;;;;;;;4958231;28;20486;-81
2023/05/17 08:59:52;;;;;;;0.20;0.20;;;;;;;;;;4957362;28;20035;-80
2023/05/17 09:02:18;;;;;;;0.20;0.20;;;;;;;;;;4960845;29;20028;-78
2023/05/17 09:04:44;;;;;;;0.17;0.17;;;;;;;;;;4975927;28;20047;-78
2023/05/17 09:07:10;;;;;;;0.20;0.20;;;;;;;;;;4973648;28;20050;-79
2023/05/17 09:09:35;;;;;;;0.20;0.20;;;;;;;;;;4968640;28;20117;-80
2023/05/17 09:12:04;;;;;;;0.20;0.20;;;;;;;;;;4966038;28;20553;-80
2023/05/17 09:14:35;;;;;;;0.38;0.38;;;;;;;;;;4954291;28;20027;-80
2023/05/17 09:17:01;;;;;;;0.20;0.20;;;;;;;;;;4946772;29;20019;-79
2023/05/17 09:19:26;;;;;;;0.10;0.10;;;;;;;;;;4941896;29;20104;-79
2023/05/17 09:21:56;;;;;;;0.20;0.20;;;;;;;;;;4970715;28;20070;-81
2023/05/17 09:24:29;;;;;;;0.10;0.10;;;;;;;;;;4960724;28;20058;-79
2023/05/17 09:27:00;;;;;;;0.10;0.10;;;;;;;;;;4957480;28;20356;-81
2023/05/17 09:29:25;;;;;;;0.13;0.13;;;;;;;;;;4964042;28;20027;-80
2023/05/17 09:31:51;;;;;;;0.10;0.10;;;;;;;;;;4963664;28;20171;-81
2023/05/17 09:34:19;;;;;;;0.10;0.10;;;;;;;;;;4970269;28;20038;-81
2023/05/17 09:36:45;;;;;;;0.10;0.10;;;;;;;;;;4957686;28;20613;-80
2023/05/17 09:39:11;;;;;;;0.10;0.10;;;;;;;;;;4969073;28;20055;-80
2023/05/17 09:41:42;;;;;;;1.38;0.47;;;;;;;;;;4972323;28;20473;-80
2023/05/17 09:44:09;;;;;;;0.10;0.10;;;;;;;;;;4964455;28;20106;-81
2023/05/17 09:46:35;;;;;;;0.10;0.10;;;;;;;;;;4953367;28;20062;-79
2023/05/17 09:49:01;;;;;;;0.10;0.10;;;;;;;;;;4959192;29;20027;-80
2023/05/17 09:51:33;;;;;;;0.10;0.10;;;;;;;;;;4954145;29;20070;-78
2023/05/17 09:53:59;;;;;;;;;;;;;;;;;;4942144;29;20067;-81
2023/05/17 09:56:30;;;;;;;0.10;0.10;;;;;;;;;;4959917;28;19918;-80
2023/05/17 09:58:57;;;;;;;0.17;0.17;;;;;;;;;;4958812;28;20393;-81
2023/05/17 10:01:26;;;;;;;0.10;0.10;;;;;;;;;;4960721;29;20023;-79
2023/05/17 10:03:53;;;;;;;0.10;0.10;;;;;;;;;;4957343;28;20166;-81
2023/05/17 10:06:21;;;;;;;0.20;0.20;;;;;;;;;;4957701;28;20081;-81
2023/05/17 10:08:58;;;;;;;0.10;0.10;;;;;;;;;;4962188;28;20047;-80
2023/05/17 10:11:32;;;;;;;0.13;0.13;;;;;;;;;;4961154;29;20482;-80
2023/05/17 10:14:08;;;;;;;0.10;0.10;;;;;;;;;;4962599;28;20023;-78
2023/05/17 10:16:36;;;;;;;0.10;0.10;;;;;;;;;;4958014;28;20019;-79
2023/05/17 10:19:02;;;;;;;0.10;0.10;;;;;;;;;;4959824;29;20251;-80
2023/05/17 10:21:30;;;;;;;0.10;0.10;;;;;;;;;;4961674;28;20038;-79
2023/05/17 10:23:57;;;;;;;0.10;0.10;;;;;;;;;;4961648;28;20093;-80
2023/05/17 10:26:23;;;;;;;0.40;0.38;;;;;;;;;;4958386;28;20041;-79
2023/05/17 10:28:52;;;;;;;0.20;0.20;;;;;;;;;;4961712;28;20110;-80
2023/05/17 10:31:18;;;;;;;0.10;0.10;;;;;;;;;;4966438;28;20023;-79
2023/05/17 10:33:45;;;;;;;0.10;0.10;;;;;;;;;;4966088;28;20039;-80
2023/05/17 10:36:16;;;;;;;0.13;0.13;;;;;;;;;;4958004;28;20085;-79
2023/05/17 10:38:41;;;;;;;0.10;0.10;;;;;;;;;;4962259;28;20470;-78
2023/05/17 10:41:08;;;;;;;0.10;0.10;;;;;;;;;;4964086;28;20034;-79
2023/05/17 10:43:33;;;;;;;0.10;0.10;;;;;;;;;;4970760;28;20016;-80
2023/05/17 10:46:01;;;;;;;0.10;0.10;;;;;;;;;;4956213;28;20111;-81
2023/05/17 10:48:27;;;;;;;0.10;0.10;;;;;;;;;;4959344;29;20426;-79
2023/05/17 10:50:53;;;;;;;0.10;0.10;;;;;;;;;;4962552;28;20043;-81
2023/05/17 10:53:18;;;;;;;0.10;0.10;;;;;;;;;;4965728;28;20024;-80
2023/05/17 10:55:43;;;;;;;0.20;0.20;;;;;;;;;;4958613;28;20039;-81
2023/05/17 10:58:15;;;;;;;0.10;0.10;;;;;;;;;;4958720;28;20058;-79
2023/05/17 11:00:41;;;;;;;0.10;0.10;;;;;;;;;;4959834;29;20027;-81
2023/05/17 11:03:21;;;;;;;0.10;0.10;;;;;;;;;;4965768;28;20070;-80
2023/05/17 11:06:13;;;;;;;0.13;0.13;;;;;;;;;;4959042;28;20035;-80
2023/05/17 11:09:06;;;;;;;0.63;0.63;;;;;;;;;;4956089;28;20054;-82
2023/05/17 11:11:32;;;;;;;0.10;0.10;;;;;;;;;;4947771;28;20038;-81
2023/05/17 11:14:03;;;;;;;0.10;0.10;;;;;;;;;;4963694;28;20106;-81
2023/05/17 11:16:36;;;;;;;0.10;0.10;;;;;;;;;;4955924;28;20031;-81
2023/05/17 11:19:09;;;;;;;0.45;0.45;;;;;;;;;;4959653;28;20031;-81
2023/05/17 11:21:43;;;;;;;0.10;0.10;;;;;;;;;;4966457;28;20015;-81
2023/05/17 11:24:09;;;;;;;0.20;0.20;;;;;;;;;;4962970;28;20362;-81
2023/05/17 11:26:39;;;;;;;0.10;0.10;;;;;;;;;;4956365;28;20038;-81
2023/05/17 11:29:11;;;;;;;0.10;0.10;;;;;;;;;;4957101;28;20081;-80
2023/05/17 11:31:51;;;;;;;0.45;0.45;;;;;;;;;;4941097;28;20023;-80
2023/05/17 11:34:17;;;;;;;0.20;0.20;;;;;;;;;;4962913;28;20035;-79
2023/05/17 11:36:53;;;;;;;0.17;0.17;;;;;;;;;;4957919;28;20393;-80
2023/05/17 11:39:21;;;;;;;0.43;0.43;;;;;;;;;;4971655;28;20029;-79
2023/05/17 11:41:52;;;;;;;0.20;0.20;;;;;;;;;;4966475;28;20038;-83
2023/05/17 11:44:31;;;;;;;0.20;0.20;;;;;;;;;;4959785;28;20106;-79
2023/05/17 11:47:01;;;;;;;0.10;0.10;;;;;;;;;;4959169;28;20517;-79
2023/05/17 11:49:29;;;;;;;0.10;0.10;;;;;;;;;;4957461;29;20066;-80
2023/05/17 11:51:54;;;;;;;0.20;0.20;;;;;;;;;;4956842;28;20023;-81
2023/05/17 11:54:24;;;;;;;0.10;0.10;;;;;;;;;;4960649;28;20110;-80
2023/05/17 11:56:52;;;;;;;0.10;0.10;;;;;;;;;;4958041;28;20497;-80
2023/05/17 11:59:19;;;;;;;0.95;0.63;;;;;;;;;;4958420;28;20033;-81
2023/05/17 12:01:45;;;;;;;0.20;0.20;;;;;;;;;;4966528;28;20058;-80
2023/05/17 12:04:11;;;;;;;0.30;0.25;;;;;;;;;;4959125;28;20042;-81
2023/05/17 12:06:37;;;;;;;0.10;0.10;;;;;;;;;;4943105;29;20031;-81
2023/05/17 12:09:04;;;;;;;0.10;0.10;;;;;;;;;;4968469;28;20398;-80
2023/05/17 12:11:30;;;;;;;0.10;0.10;;;;;;;;;;4956092;28;20078;-81
2023/05/17 12:13:55;;;;;;;16.75;0.73;;;;;;;;;;4959247;28;20023;-80
2023/05/17 12:16:21;;;;;;;0.10;0.10;;;;;;;;;;4959230;28;20439;-78
2023/05/17 12:18:48;;;;;;;0.10;0.10;;;;;;;;;;4965719;28;20035;-78
2023/05/17 12:21:14;;;;;;;0.13;0.13;;;;;;;;;;4964877;28;20173;-79
2023/05/17 12:23:45;;;;;;;0.10;0.10;;;;;;;;;;4964250;28;20058;-81
2023/05/17 12:26:21;;;;;;;0.10;0.10;;;;;;;;;;4961671;28;20437;-80
2023/05/17 12:28:57;;;;;;;0.10;0.10;;;;;;;;;;4961306;28;20188;-81
2023/05/17 12:31:34;;;;;;;0.10;0.10;;;;;;;;;;4959285;28;20053;-80
2023/05/17 12:34:03;;;;;;;0.10;0.10;;;;;;;;;;4961977;28;20077;-80
2023/05/17 12:36:30;;;;;;;0.10;0.10;;;;;;;;;;4967609;28;20030;-80
2023/05/17 12:38:56;;;;;;;0.60;0.60;;;;;;;;;;4961418;28;20090;-80
2023/05/17 12:41:22;;;;;;;0.10;0.10;;;;;;;;;;4954913;28;20050;-80
2023/05/17 12:43:48;;;;;;;0.15;0.15;;;;;;;;;;4941672;28;20031;-81
2023/05/17 12:46:19;;;;;;;0.35;0.35;;;;;;;;;;4953512;28;20019;-80
2023/05/17 12:48:46;;;;;;;0.13;0.13;;;;;;;;;;4955122;28;20031;-81
2023/05/17 12:51:22;;;;;;;0.10;0.10;;;;;;;;;;4958804;28;20027;-81
2023/05/17 12:53:53;;;;;;;0.10;0.10;;;;;;;;;;4954047;28;20039;-79
2023/05/17 12:56:23;;;;;;;0.10;0.10;;;;;;;;;;4960513;28;20029;-80
2023/05/17 12:59:13;;;;;;;0.10;0.10;;;;;;;;;;4962852;28;20031;-81
2023/05/17 13:01:47;;;;;;;0.10;0.10;;;;;;;;;;4956190;28;20023;-81
2023/05/17 13:04:13;;;;;;;0.20;0.20;;;;;;;;;;4960816;28;20031;-80
2023/05/17 13:06:42;;;;;;;0.10;0.10;;;;;;;;;;4964237;28;20027;-81
2023/05/17 13:09:07;;;;;;;0.10;0.10;;;;;;;;;;4956868;29;20375;-81
2023/05/17 13:11:39;;;;;;;0.10;0.10;;;;;;;;;;4959867;29;20038;-81
2023/05/17 13:14:04;;;;;;;0.10;0.10;;;;;;;;;;4957333;28;20612;-80
2023/05/17 13:16:30;;;;;;;0.30;0.30;;;;;;;;;;4954428;28;20051;-81
2023/05/17 13:18:55;;;;;;;0.10;0.10;;;;;;;;;;4950558;28;21832;-81
2023/05/17 13:21:21;;;;;;;0.10;0.10;;;;;;;;;;4954262;29;20027;-81
2023/05/17 13:23:48;;;;;;;0.17;0.17;;;;;;;;;;4954860;28;20059;-81
2023/05/17 13:26:17;;;;;;;0.10;0.10;;;;;;;;;;4948268;28;20043;-81
2023/05/17 13:28:42;;;;;;;0.20;0.20;;;;;;;;;;4962488;28;20031;-80
2023/05/17 13:31:08;;;;;;;0.10;0.10;;;;;;;;;;4960352;28;20029;-81
2023/05/17 13:33:33;;;;;;;0.13;0.13;;;;;;;;;;4959405;28;20074;-81
2023/05/17 13:35:59;;;;;;;0.10;0.10;;;;;;;;;;4957625;28;20546;-81
2023/05/17 13:38:24;;;;;;;0.10;0.10;;;;;;;;;;4954293;28;20027;-80
2023/05/17 13:40:50;;;;;;;0.10;0.10;;;;;;;;;;4955377;28;20067;-81
2023/05/17 13:43:15;;;;;;;0.10;0.10;;;;;;;;;;4956198;28;20027;-81
2023/05/17 13:45:40;;;;;;;0.10;0.10;;;;;;;;;;4952551;28;22233;-81
2023/05/17 13:48:06;;;;;;;0.10;0.10;;;;;;;;;;4956614;28;20083;-81
2023/05/17 13:50:31;;;;;;;0.10;0.10;;;;;;;;;;4955908;28;20038;-81
2023/05/17 13:52:57;;;;;;;0.40;0.40;;;;;;;;;;4952524;29;20035;-80
2023/05/17 13:55:23;;;;;;;0.10;0.10;;;;;;;;;;4976141;28;20031;-79
2023/05/17 13:57:48;;;;;;;0.10;0.10;;;;;;;;;;4978530;28;20059;-80
2023/05/17 14:00:14;;;;;;;0.10;0.10;;;;;;;;;;4957902;28;20027;-79
2023/05/17 14:02:40;;;;;;;0.20;0.20;;;;;;;;;;4957725;29;20023;-79
2023/05/17 14:05:08;;;;;;;0.10;0.10;;;;;;;;;;4954686;28;20061;-81
2023/05/17 14:07:40;;;;;;;0.30;0.30;;;;;;;;;;4958110;29;20027;-79
2023/05/17 14:10:11;;;;;;;0.03;0.03;;;;;;;;;;4957661;28;20028;-80
2023/05/17 14:12:39;;;;;;;0.10;0.10;;;;;;;;;;4958940;29;20020;-79
2023/05/17 14:15:06;;;;;;;0.20;0.20;;;;;;;;;;4959090;28;20499;-81
2023/05/17 14:17:32;;;;;;;0.30;0.30;;;;;;;;;;4959239;28;20080;-80
2023/05/17 14:19:58;;;;;;;0.17;0.17;;;;;;;;;;4964911;28;20491;-80
2023/05/17 14:22:23;;;;;;;0.10;0.10;;;;;;;;;;4969820;28;20039;-80
2023/05/17 14:24:48;;;;;;;0.10;0.10;;;;;;;;;;4957653;28;21122;-81
2023/05/17 14:27:14;;;;;;;0.10;0.10;;;;;;;;;;4955692;28;20031;-81
2023/05/17 14:29:39;;;;;;;0.10;0.10;;;;;;;;;;4956694;28;21312;-80
2023/05/17 14:32:05;;;;;;;0.10;0.10;;;;;;;;;;4960869;28;20501;-80
2023/05/17 14:34:31;;;;;;;0.13;0.13;;;;;;;;;;4952647;28;20031;-81
2023/05/17 14:36:56;;;;;;;0.10;0.10;;;;;;;;;;4964327;28;20118;-81
2023/05/17 14:39:21;;;;;;;0.20;0.20;;;;;;;;;;4958573;28;20027;-80
2023/05/17 14:41:47;;;;;;;0.10;0.10;;;;;;;;;;4942883;29;20027;-79
2023/05/17 14:44:13;;;;;;;0.10;0.10;;;;;;;;;;4959584;28;20039;-80